createdAt,value
2023-02-12T00:01:36.475Z,100.80
2023-02-12T00:04:24.993Z,93.47
2023-02-12T00:07:13.219Z,95.40
2023-02-12T00:09:54.953Z,92.13
2023-02-12T00:12:37.142Z,88.60
2023-02-12T00:15:26.052Z,76.88
2023-02-12T00:18:15.272Z,88.65
2023-02-12T00:20:56.967Z,83.53
2023-02-12T00:23:47.324Z,76.78
2023-02-12T00:26:30.944Z,85.18
2023-02-12T00:29:13.152Z,76.80
2023-02-12T00:32:01.967Z,84.80
2023-02-12T00:34:50.178Z,73.90
2023-02-12T00:37:32.009Z,81.25
2023-02-12T00:40:21.224Z,70.45
2023-02-12T00:43:02.924Z,75.40
2023-02-12T00:45:53.413Z,72.72
2023-02-12T00:48:36.948Z,62.17
2023-02-12T00:51:25.221Z,63.10
2023-02-12T00:54:06.961Z,55.50
2023-02-12T00:56:57.015Z,56.67
2023-02-12T00:59:39.967Z,58.97
2023-02-12T01:02:28.857Z,58.30
2023-02-12T01:05:18.950Z,59.78
2023-02-12T01:08:01.277Z,57.00
2023-02-12T01:10:49.965Z,61.10
2023-02-12T01:13:42.952Z,66.70
2023-02-12T01:16:39.193Z,74.18
2023-02-12T01:19:28.911Z,55.67
2023-02-12T01:22:12.008Z,55.70
2023-02-12T01:25:00.251Z,55.50
2023-02-12T01:27:41.894Z,52.72
2023-02-12T01:30:31.519Z,53.90
2023-02-12T01:33:25.942Z,49.08
2023-02-12T01:36:15.345Z,55.83
2023-02-12T01:38:57.902Z,45.83
2023-02-12T01:41:52.131Z,53.72
2023-02-12T01:44:38.360Z,53.90
2023-02-12T01:47:26.921Z,52.90
2023-02-12T01:50:09.274Z,49.60
2023-02-12T01:53:05.188Z,58.43
2023-02-12T01:55:51.192Z,51.50
2023-02-12T01:58:46.920Z,55.25
2023-02-12T02:01:43.382Z,53.58
2023-02-12T02:04:37.168Z,53.05
2023-02-12T02:07:19.939Z,50.85
2023-02-12T02:10:09.244Z,54.85
2023-02-12T02:13:09.972Z,60.83
2023-02-12T02:16:05.259Z,63.42
2023-02-12T02:19:01.032Z,64.00
2023-02-12T02:22:30.235Z,76.65
2023-02-12T02:25:39.967Z,81.03
2023-02-12T02:28:55.659Z,88.75
2023-02-12T02:31:55.015Z,97.38
2023-02-12T02:34:55.998Z,93.00
2023-02-12T02:37:47.323Z,115.50
2023-02-12T02:40:46.077Z,102.43
2023-02-12T02:43:52.083Z,101.15
2023-02-12T02:46:57.040Z,111.35
2023-02-12T02:50:00.210Z,118.20
2023-02-12T02:52:48.940Z,107.82
2023-02-12T02:55:45.886Z,110.43
2023-02-12T02:58:43.967Z,76.97
2023-02-12T03:01:32.612Z,59.65
2023-02-12T03:04:26.960Z,59.72
2023-02-12T03:07:52.990Z,52.25
2023-02-12T03:10:44.227Z,55.63
2023-02-12T03:13:42.927Z,57.08
2023-02-12T03:16:33.431Z,51.63
2023-02-12T03:19:32.958Z,57.63
2023-02-12T03:22:20.294Z,43.97
2023-02-12T03:25:25.881Z,45.67
2023-02-12T03:28:31.935Z,41.92
2023-02-12T03:31:20.207Z,35.03
2023-02-12T03:34:27.032Z,47.35
2023-02-12T03:37:41.246Z,36.35
2023-02-12T03:40:31.963Z,34.05
2023-02-12T03:43:44.333Z,40.80
2023-02-12T03:46:29.982Z,30.27
2023-02-12T03:49:46.860Z,33.50
2023-02-12T03:52:35.942Z,30.02
2023-02-12T03:55:19.369Z,40.45
2023-02-12T03:58:14.921Z,34.85
2023-02-12T04:01:04.929Z,32.95
2023-02-12T04:03:47.234Z,29.77
2023-02-12T04:06:36.907Z,31.75
2023-02-12T04:09:27.829Z,29.38
2023-02-12T04:12:20.892Z,30.20
2023-02-12T04:15:15.247Z,33.90
2023-02-12T04:18:12.983Z,22.50
2023-02-12T04:21:23.298Z,19.52
2023-02-12T04:24:18.837Z,21.00
2023-02-12T04:27:31.148Z,20.35
2023-02-12T04:31:04.072Z,18.20
2023-02-12T04:34:15.781Z,20.10
2023-02-12T04:37:17.906Z,14.88
2023-02-12T04:40:08.962Z,20.48
2023-02-12T04:43:00.136Z,25.38
2023-02-12T04:45:43.912Z,18.83
2023-02-12T04:48:32.247Z,17.60
2023-02-12T04:51:14.293Z,16.60
2023-02-12T04:54:02.236Z,16.77
2023-02-12T04:56:44.966Z,16.38
2023-02-12T04:59:34.230Z,17.48
2023-02-12T05:02:16.865Z,13.05
2023-02-12T05:05:05.258Z,16.50
2023-02-12T05:07:47.975Z,21.83
2023-02-12T05:10:37.170Z,20.75
2023-02-12T05:13:19.850Z,21.52
2023-02-12T05:16:04.973Z,22.93
2023-02-12T05:18:54.038Z,18.25
2023-02-12T05:21:43.238Z,21.65
2023-02-12T05:24:25.991Z,25.92
2023-02-12T05:27:16.321Z,16.38
2023-02-12T05:29:57.927Z,21.08
2023-02-12T05:32:46.269Z,15.75
2023-02-12T05:35:40.873Z,20.33
2023-02-12T05:38:30.748Z,15.05
2023-02-12T05:41:18.973Z,22.02
2023-02-12T05:44:08.410Z,24.55
2023-02-12T05:46:50.980Z,20.73
2023-02-12T05:49:40.221Z,16.58
2023-02-12T05:52:22.881Z,18.73
2023-02-12T05:55:12.172Z,19.33
2023-02-12T05:57:54.611Z,18.45
2023-02-12T06:00:44.360Z,15.43
2023-02-12T06:03:25.955Z,18.60
2023-02-12T06:06:15.011Z,24.35
2023-02-12T06:08:59.404Z,19.17
2023-02-12T06:11:47.979Z,15.43
2023-02-12T06:14:31.911Z,28.38
2023-02-12T06:17:20.875Z,19.05
2023-02-12T06:20:03.139Z,15.98
2023-02-12T06:22:51.934Z,19.38
2023-02-12T06:25:34.229Z,19.35
2023-02-12T06:28:23.055Z,16.00
2023-02-12T06:31:05.335Z,14.60
2023-02-12T06:33:53.964Z,16.05
2023-02-12T06:36:45.661Z,17.15
2023-02-12T06:39:28.898Z,18.25
2023-02-12T06:42:17.368Z,18.17
2023-02-12T06:45:00.004Z,13.40
2023-02-12T06:47:48.218Z,16.40
2023-02-12T06:50:30.966Z,17.25
2023-02-12T06:53:19.232Z,14.65
2023-02-12T06:56:01.976Z,25.00
2023-02-12T06:58:53.192Z,16.73
2023-02-12T07:01:38.186Z,13.50
2023-02-12T07:04:26.229Z,22.98
2023-02-12T07:07:08.997Z,25.20
2023-02-12T07:09:57.172Z,15.48
2023-02-12T07:12:41.911Z,22.73
2023-02-12T07:15:30.172Z,16.70
2023-02-12T07:18:12.953Z,20.00
2023-02-12T07:20:57.893Z,12.95
2023-02-12T07:23:51.032Z,21.05
2023-02-12T07:26:40.182Z,16.33
2023-02-12T07:29:22.956Z,13.30
2023-02-12T07:32:12.040Z,20.05
2023-02-12T07:34:55.342Z,12.40
2023-02-12T07:37:43.954Z,15.25
2023-02-12T07:40:26.188Z,15.15
2023-02-12T07:43:14.904Z,13.63
2023-02-12T07:46:03.902Z,14.20
2023-02-12T07:48:54.260Z,15.18
2023-02-12T07:51:36.917Z,12.35
2023-02-12T07:54:26.137Z,10.45
2023-02-12T07:57:08.969Z,21.58
2023-02-12T07:59:51.119Z,15.60
2023-02-12T08:02:40.965Z,15.63
2023-02-12T08:05:30.236Z,13.77
2023-02-12T08:08:13.272Z,10.05
2023-02-12T08:11:04.137Z,15.60
2023-02-12T08:13:47.002Z,6.63
2023-02-12T08:16:30.920Z,11.45
2023-02-12T08:19:24.880Z,10.70
2023-02-12T08:22:14.201Z,13.93
2023-02-12T08:24:55.843Z,8.98
2023-02-12T08:27:44.207Z,8.82
2023-02-12T08:30:27.092Z,11.88
2023-02-12T08:33:15.247Z,8.60
2023-02-12T08:36:18.876Z,8.98
2023-02-12T08:39:02.232Z,8.90
2023-02-12T08:41:50.977Z,5.05
2023-02-12T08:44:34.157Z,7.93
2023-02-12T08:47:22.875Z,5.30
2023-02-12T08:50:05.146Z,4.07
2023-02-12T08:52:53.959Z,8.63
2023-02-12T08:55:36.193Z,6.20
2023-02-12T08:58:24.924Z,6.28
2023-02-12T09:01:08.252Z,9.75
2023-02-12T09:03:57.956Z,10.63
2023-02-12T09:06:42.297Z,6.88
2023-02-12T09:09:31.199Z,5.68
2023-02-12T09:12:13.188Z,6.93
2023-02-12T09:15:01.954Z,11.85
2023-02-12T09:17:44.818Z,16.70
2023-02-12T09:20:33.911Z,7.60
2023-02-12T09:23:21.229Z,7.00
2023-02-12T09:26:13.999Z,7.30
2023-02-12T09:28:58.300Z,12.43
2023-02-12T09:31:47.034Z,9.20
2023-02-12T09:34:29.262Z,7.32
2023-02-12T09:37:17.960Z,6.05
2023-02-12T09:40:00.206Z,5.10
2023-02-12T09:43:11.825Z,7.80
2023-02-12T09:46:25.737Z,4.20
2023-02-12T09:49:22.872Z,7.20
2023-02-12T09:52:13.775Z,8.45
2023-02-12T09:55:03.882Z,6.03
2023-02-12T09:57:46.423Z,4.72
2023-02-12T10:00:40.002Z,6.82
2023-02-12T10:03:25.283Z,4.20
2023-02-12T10:06:19.903Z,10.43
2023-02-12T10:09:19.411Z,16.08
2023-02-12T10:12:46.853Z,7.47
2023-02-12T10:15:53.437Z,9.70
2023-02-12T10:18:59.904Z,5.72
2023-02-12T10:21:52.180Z,5.13
2023-02-12T10:25:02.941Z,4.15
2023-02-12T10:27:54.198Z,4.88
2023-02-12T10:30:55.081Z,7.72
2023-02-12T10:33:47.457Z,7.93
2023-02-12T10:36:53.351Z,5.07
2023-02-12T10:39:50.357Z,6.78
2023-02-12T10:42:51.943Z,6.20
2023-02-12T10:45:45.194Z,4.50
2023-02-12T10:48:40.919Z,4.57
2023-02-12T10:51:44.206Z,6.65
2023-02-12T10:54:49.060Z,7.67
2023-02-12T10:57:33.151Z,6.00
2023-02-12T11:00:37.181Z,4.45
2023-02-12T11:03:22.601Z,15.77
2023-02-12T11:06:38.956Z,3.25
2023-02-12T11:09:48.355Z,6.80
2023-02-12T11:12:50.969Z,7.78
2023-02-12T11:15:38.201Z,6.82
2023-02-12T11:18:34.944Z,5.07
2023-02-12T11:21:21.335Z,7.18
2023-02-12T11:24:34.962Z,8.18
2023-02-12T11:27:37.396Z,10.50
2023-02-12T11:30:28.926Z,7.75
2023-02-12T11:33:40.287Z,5.55
2023-02-12T11:36:33.881Z,8.27
2023-02-12T11:39:28.172Z,11.52
2023-02-12T11:42:32.381Z,6.80
2023-02-12T11:45:15.186Z,7.18
2023-02-12T11:48:03.864Z,4.00
2023-02-12T11:50:46.307Z,3.88
2023-02-12T11:53:49.962Z,7.20
2023-02-12T11:56:48.338Z,3.97
2023-02-12T11:59:47.936Z,8.82
2023-02-12T12:02:57.202Z,3.50
2023-02-12T12:05:54.014Z,3.80
2023-02-12T12:08:52.167Z,12.95
2023-02-12T12:12:00.946Z,7.20
2023-02-12T12:15:06.768Z,12.45
2023-02-12T12:18:22.887Z,8.05
2023-02-12T12:21:24.247Z,4.50
2023-02-12T12:24:21.862Z,8.35
2023-02-12T12:27:31.805Z,6.57
2023-02-12T12:30:52.826Z,5.53
2023-02-12T12:33:57.947Z,8.02
2023-02-12T12:37:08.415Z,4.78
2023-02-12T12:40:23.849Z,10.30
2023-02-12T12:43:24.301Z,12.77
2023-02-12T12:46:08.902Z,12.02
2023-02-12T12:49:21.386Z,6.78
2023-02-12T12:52:36.889Z,8.90
2023-02-12T12:55:42.822Z,9.88
2023-02-12T12:58:57.950Z,9.48
2023-02-12T13:02:04.266Z,12.05
2023-02-12T13:04:59.942Z,12.55
2023-02-12T13:08:04.154Z,16.80
2023-02-12T13:11:08.863Z,12.73
2023-02-12T13:14:03.170Z,9.05
2023-02-12T13:17:20.834Z,18.65
2023-02-12T13:20:39.885Z,10.77
2023-02-12T13:23:39.142Z,25.05
2023-02-12T13:26:30.930Z,15.55
2023-02-12T13:29:16.302Z,15.48
2023-02-12T13:32:14.112Z,17.90
2023-02-12T13:35:11.183Z,24.27
2023-02-12T13:38:04.005Z,13.40
2023-02-12T13:40:50.684Z,17.13
2023-02-12T13:43:55.824Z,28.65
2023-02-12T13:47:00.266Z,18.50
2023-02-12T13:50:05.011Z,18.02
2023-02-12T13:53:15.403Z,25.80
2023-02-12T13:56:35.888Z,27.70
2023-02-12T13:59:37.363Z,21.90
2023-02-12T14:02:46.050Z,27.70
2023-02-12T14:05:39.236Z,22.56
2023-02-12T14:08:44.917Z,23.15
2023-02-12T14:11:34.250Z,26.38
2023-02-12T14:14:35.909Z,23.27
2023-02-12T14:17:44.200Z,21.27
2023-02-12T14:20:48.194Z,23.65
2023-02-12T14:26:29.909Z,22.95
2023-02-12T14:29:25.882Z,25.13
2023-02-12T14:32:52.952Z,33.33
2023-02-12T14:35:58.001Z,17.98
2023-02-12T14:38:49.874Z,27.98
2023-02-12T14:41:38.612Z,27.17
2023-02-12T14:44:30.927Z,22.60
2023-02-12T14:47:24.260Z,20.52
2023-02-12T14:50:30.998Z,23.48
2023-02-12T14:53:36.436Z,27.98
2023-02-12T14:56:30.954Z,17.73
2023-02-12T14:59:23.445Z,15.88
2023-02-12T15:02:13.896Z,27.35
2023-02-12T15:04:58.487Z,22.20
2023-02-12T15:08:07.845Z,23.60
2023-02-12T15:11:04.982Z,27.50
2023-02-12T15:14:09.698Z,21.77
2023-02-12T15:17:01.831Z,21.77
2023-02-12T15:19:56.263Z,20.00
2023-02-12T15:22:59.248Z,20.58
2023-02-12T15:25:41.993Z,15.43
2023-02-12T15:28:45.924Z,25.60
2023-02-12T15:31:37.397Z,17.20
2023-02-12T15:34:28.855Z,25.33
2023-02-12T15:37:31.944Z,25.80
2023-02-12T15:40:24.188Z,25.20
2023-02-12T15:43:15.869Z,24.17
2023-02-12T15:45:58.506Z,20.42
2023-02-12T15:48:51.861Z,29.10
2023-02-12T15:51:48.097Z,27.33
2023-02-12T15:54:30.893Z,21.88
2023-02-12T15:57:27.293Z,20.30
2023-02-12T16:00:30.930Z,26.95
2023-02-12T16:03:38.327Z,21.55
2023-02-12T16:06:24.962Z,20.05
2023-02-12T16:09:31.237Z,19.85
2023-02-12T16:12:20.870Z,28.85
2023-02-12T16:15:11.943Z,21.33
2023-02-12T16:17:56.902Z,20.55
2023-02-12T16:20:47.865Z,21.90
2023-02-12T16:23:31.905Z,18.98
2023-02-12T16:26:22.872Z,17.13
2023-02-12T16:29:12.818Z,30.23
2023-02-12T16:32:05.328Z,17.30
2023-02-12T16:34:47.834Z,18.65
2023-02-12T16:37:46.740Z,18.42
2023-02-12T16:40:34.241Z,28.98
2023-02-12T16:43:34.231Z,24.13
2023-02-12T16:46:17.656Z,25.50
2023-02-12T16:49:09.298Z,30.45
2023-02-12T16:51:51.883Z,33.42
2023-02-12T16:54:49.810Z,26.05
2023-02-12T16:57:38.753Z,29.75
2023-02-12T17:00:32.799Z,27.55
2023-02-12T17:03:23.013Z,22.23
2023-02-12T17:06:05.130Z,26.85
2023-02-12T17:08:54.137Z,21.05
2023-02-12T17:11:37.070Z,15.20
2023-02-12T17:14:27.874Z,27.55
2023-02-12T17:17:10.366Z,27.67
2023-02-12T17:20:00.909Z,29.67
2023-02-12T17:22:43.172Z,35.58
2023-02-12T17:25:31.832Z,35.28
2023-02-12T17:28:14.375Z,20.80
2023-02-12T17:31:02.990Z,26.20
2023-02-12T17:33:45.530Z,23.23
2023-02-12T17:36:41.843Z,22.95
2023-02-12T17:39:30.202Z,28.98
2023-02-12T17:42:13.842Z,23.95
2023-02-12T17:45:03.259Z,20.77
2023-02-12T17:47:47.887Z,21.83
2023-02-12T17:50:37.263Z,18.52
2023-02-12T17:53:21.132Z,19.45
2023-02-12T17:56:09.221Z,21.52
2023-02-12T17:58:51.875Z,21.92
2023-02-12T18:01:42.115Z,23.98
2023-02-12T18:04:25.026Z,19.27
2023-02-12T18:07:13.229Z,15.32
2023-02-12T18:09:55.878Z,21.30
2023-02-12T18:12:44.162Z,18.13
2023-02-12T18:15:28.795Z,20.13
2023-02-12T18:18:19.110Z,20.50
2023-02-12T18:21:01.820Z,26.15
2023-02-12T18:23:51.245Z,25.00
2023-02-12T18:26:33.898Z,23.60
2023-02-12T18:29:22.198Z,18.67
2023-02-12T18:32:04.822Z,24.08
2023-02-12T18:34:54.104Z,19.48
2023-02-12T18:37:49.877Z,25.20
2023-02-12T18:40:32.067Z,25.42
2023-02-12T18:43:20.837Z,25.73
2023-02-12T18:46:17.968Z,30.00
2023-02-12T18:49:00.220Z,26.20
2023-02-12T18:51:48.836Z,24.25
2023-02-12T18:54:31.145Z,34.78
2023-02-12T18:57:19.805Z,24.92
2023-02-12T19:00:08.824Z,30.45
2023-02-12T19:02:57.104Z,31.70
2023-02-12T19:05:39.784Z,27.35
2023-02-12T19:08:22.150Z,31.52
2023-02-12T19:11:10.824Z,28.70
2023-02-12T19:14:00.335Z,31.83
2023-02-12T19:16:43.870Z,31.73
2023-02-12T19:19:33.317Z,35.63
2023-02-12T19:22:14.802Z,29.25
2023-02-12T19:25:05.152Z,27.90
2023-02-12T19:27:47.871Z,30.55
2023-02-12T19:33:25.809Z,29.55
2023-02-12T19:36:23.898Z,30.88
2023-02-12T19:39:13.097Z,32.67
2023-02-12T19:41:55.846Z,26.17
2023-02-12T19:44:45.651Z,27.55
2023-02-12T19:47:28.816Z,40.22
2023-02-12T19:50:18.120Z,31.27
2023-02-12T19:53:00.868Z,26.23
2023-02-12T19:55:49.131Z,28.63
2023-02-12T19:58:30.762Z,33.28
2023-02-12T20:01:27.271Z,34.50
2023-02-12T20:04:10.823Z,36.88
2023-02-12T20:07:00.241Z,34.05
2023-02-12T20:09:42.765Z,41.83
2023-02-12T20:12:31.135Z,36.42
2023-02-12T20:15:13.785Z,32.15
2023-02-12T20:18:02.163Z,40.85
2023-02-12T20:20:45.199Z,46.80
2023-02-12T20:23:34.145Z,33.55
2023-02-12T20:26:19.860Z,37.05
2023-02-12T20:29:09.086Z,40.20
2023-02-12T20:31:52.976Z,39.83
2023-02-12T20:34:50.621Z,35.30
2023-02-12T20:37:46.802Z,40.78
2023-02-12T20:40:29.032Z,34.53
2023-02-12T20:43:17.818Z,38.38
2023-02-12T20:46:20.141Z,34.88
2023-02-12T20:49:03.803Z,33.33
2023-02-12T20:51:53.788Z,31.77
2023-02-12T20:54:42.716Z,35.22
2023-02-12T20:57:32.818Z,28.42
2023-02-12T21:00:17.088Z,37.92
2023-02-12T21:03:05.817Z,37.05
2023-02-12T21:05:48.076Z,38.53
2023-02-12T21:08:36.843Z,39.35
2023-02-12T21:11:25.101Z,41.03
2023-02-12T21:14:21.796Z,38.85
2023-02-12T21:17:11.839Z,45.22
2023-02-12T21:20:00.128Z,36.40
2023-02-12T21:22:41.840Z,40.22
2023-02-12T21:25:24.119Z,44.22
2023-02-12T21:28:12.767Z,47.72
2023-02-12T21:31:01.172Z,44.35
2023-02-12T21:33:43.830Z,43.75
2023-02-12T21:36:44.646Z,44.13
2023-02-12T21:39:35.860Z,44.72
2023-02-12T21:42:18.107Z,36.67
2023-02-12T21:45:07.208Z,40.70
2023-02-12T21:47:49.146Z,41.45
2023-02-12T21:50:42.719Z,36.35
2023-02-12T21:53:25.102Z,36.33
2023-02-12T21:56:14.744Z,50.20
2023-02-12T21:58:58.032Z,45.42
2023-02-12T22:01:50.783Z,43.08
2023-02-12T22:04:39.716Z,39.25
2023-02-12T22:07:28.747Z,40.33
2023-02-12T22:10:11.058Z,38.70
2023-02-12T22:12:59.761Z,41.95
2023-02-12T22:15:42.026Z,30.35
2023-02-12T22:18:30.759Z,39.50
2023-02-12T22:21:15.088Z,36.85
2023-02-12T22:24:04.756Z,36.97
2023-02-12T22:26:53.783Z,32.40
2023-02-12T22:29:42.069Z,31.70
2023-02-12T22:32:24.971Z,34.88
2023-02-12T22:35:14.045Z,30.42
2023-02-12T22:38:02.848Z,34.92
2023-02-12T22:40:46.117Z,28.50
2023-02-12T22:43:37.710Z,31.25
2023-02-12T22:46:22.145Z,27.17
2023-02-12T22:49:10.796Z,31.35
2023-02-12T22:51:59.714Z,31.10
2023-02-12T22:54:49.033Z,33.42
2023-02-12T22:57:31.728Z,35.10
2023-02-12T23:00:14.417Z,35.72
2023-02-12T23:03:03.742Z,30.05
2023-02-12T23:05:45.928Z,32.30
2023-02-12T23:08:34.804Z,38.00
2023-02-12T23:11:23.700Z,33.95
2023-02-12T23:14:07.749Z,35.03
2023-02-12T23:16:57.165Z,31.63
2023-02-12T23:19:39.802Z,31.13
2023-02-12T23:22:28.051Z,30.47
2023-02-12T23:25:09.718Z,30.23
2023-02-12T23:27:58.000Z,29.67
2023-02-12T23:30:40.823Z,29.85
2023-02-12T23:33:29.046Z,28.52
2023-02-12T23:36:24.763Z,29.73
2023-02-12T23:39:13.007Z,28.05
2023-02-12T23:41:54.778Z,38.38
2023-02-12T23:44:43.101Z,32.55
2023-02-12T23:47:24.775Z,30.45
2023-02-12T23:50:15.173Z,25.95
2023-02-12T23:52:57.767Z,34.45
2023-02-12T23:55:48.086Z,36.88
2023-02-12T23:58:30.088Z,24.23
